sensor_id;sensor_type;location;lat;lon;timestamp;P1;durP1;ratioP1;P2;durP2;ratioP2
70071;SDS011;57434;42.794;23.302;2023-05-20T00:00:16;10.57;;;5.43;;
70071;SDS011;57434;42.794;23.302;2023-05-20T00:01:18;10.25;;;5.45;;
70071;SDS011;57434;42.794;23.302;2023-05-20T00:02:20;11.13;;;5.53;;
70071;SDS011;57434;42.794;23.302;2023-05-20T00:03:22;12.02;;;5.88;;
70071;SDS011;57434;42.794;23.302;2023-05-20T00:04:24;12.33;;;5.67;;
70071;SDS011;57434;42.794;23.302;2023-05-20T00:05:26;10.75;;;5.78;;
70071;SDS011;57434;42.794;23.302;2023-05-20T00:06:28;15.48;;;6.05;;
70071;SDS011;57434;42.794;23.302;2023-05-20T00:07:30;14.13;;;5.60;;
70071;SDS011;57434;42.794;23.302;2023-05-20T00:08:32;12.13;;;5.28;;
70071;SDS011;57434;42.794;23.302;2023-05-20T00:09:34;10.77;;;5.70;;
70071;SDS011;57434;42.794;23.302;2023-05-20T00:10:36;11.32;;;5.05;;
70071;SDS011;57434;42.794;23.302;2023-05-20T00:11:38;10.23;;;5.55;;
70071;SDS011;57434;42.794;23.302;2023-05-20T00:12:40;12.48;;;6.22;;
70071;SDS011;57434;42.794;23.302;2023-05-20T00:13:42;16.70;;;6.05;;
70071;SDS011;57434;42.794;23.302;2023-05-20T00:14:44;11.43;;;5.70;;
70071;SDS011;57434;42.794;23.302;2023-05-20T00:15:45;10.60;;;5.38;;
70071;SDS011;57434;42.794;23.302;2023-05-20T00:16:47;10.70;;;5.85;;
70071;SDS011;57434;42.794;23.302;2023-05-20T00:17:49;15.63;;;6.03;;
70071;SDS011;57434;42.794;23.302;2023-05-20T00:18:51;10.82;;;5.90;;
70071;SDS011;57434;42.794;23.302;2023-05-20T00:19:53;11.90;;;6.32;;
70071;SDS011;57434;42.794;23.302;2023-05-20T00:20:55;13.27;;;6.57;;
70071;SDS011;57434;42.794;23.302;2023-05-20T00:21:57;12.82;;;6.38;;
70071;SDS011;57434;42.794;23.302;2023-05-20T00:22:59;10.95;;;5.93;;
70071;SDS011;57434;42.794;23.302;2023-05-20T00:24:01;13.10;;;5.90;;
70071;SDS011;57434;42.794;23.302;2023-05-20T00:25:03;12.00;;;6.33;;
70071;SDS011;57434;42.794;23.302;2023-05-20T00:26:05;10.60;;;5.88;;
70071;SDS011;57434;42.794;23.302;2023-05-20T00:27:07;13.93;;;6.50;;
70071;SDS011;57434;42.794;23.302;2023-05-20T00:28:08;14.75;;;6.10;;
70071;SDS011;57434;42.794;23.302;2023-05-20T00:29:10;14.05;;;6.20;;
70071;SDS011;57434;42.794;23.302;2023-05-20T00:30:12;13.70;;;6.10;;
70071;SDS011;57434;42.794;23.302;2023-05-20T00:31:14;11.90;;;5.93;;
70071;SDS011;57434;42.794;23.302;2023-05-20T00:32:16;13.13;;;6.43;;
70071;SDS011;57434;42.794;23.302;2023-05-20T00:33:18;14.18;;;6.05;;
70071;SDS011;57434;42.794;23.302;2023-05-20T00:34:20;11.82;;;5.78;;
70071;SDS011;57434;42.794;23.302;2023-05-20T00:35:22;12.93;;;7.03;;
70071;SDS011;57434;42.794;23.302;2023-05-20T00:36:23;12.57;;;6.53;;
70071;SDS011;57434;42.794;23.302;2023-05-20T00:37:26;15.65;;;5.57;;
70071;SDS011;57434;42.794;23.302;2023-05-20T00:38:28;12.45;;;6.00;;
70071;SDS011;57434;42.794;23.302;2023-05-20T00:39:30;10.27;;;5.60;;
70071;SDS011;57434;42.794;23.302;2023-05-20T00:40:32;11.07;;;5.82;;
70071;SDS011;57434;42.794;23.302;2023-05-20T00:41:34;13.93;;;6.13;;
70071;SDS011;57434;42.794;23.302;2023-05-20T00:42:36;12.45;;;6.00;;
70071;SDS011;57434;42.794;23.302;2023-05-20T00:43:37;13.25;;;6.20;;
70071;SDS011;57434;42.794;23.302;2023-05-20T00:44:39;15.40;;;6.22;;
70071;SDS011;57434;42.794;23.302;2023-05-20T00:45:41;13.63;;;6.63;;
70071;SDS011;57434;42.794;23.302;2023-05-20T00:46:43;10.88;;;6.15;;
70071;SDS011;57434;42.794;23.302;2023-05-20T00:47:47;14.70;;;6.65;;
70071;SDS011;57434;42.794;23.302;2023-05-20T00:48:49;12.80;;;6.07;;
70071;SDS011;57434;42.794;23.302;2023-05-20T00:49:51;11.93;;;5.68;;
70071;SDS011;57434;42.794;23.302;2023-05-20T00:50:53;11.32;;;5.85;;
70071;SDS011;57434;42.794;23.302;2023-05-20T00:51:55;13.00;;;5.85;;
70071;SDS011;57434;42.794;23.302;2023-05-20T00:52:57;12.68;;;6.10;;
70071;SDS011;57434;42.794;23.302;2023-05-20T00:53:59;14.15;;;5.97;;
70071;SDS011;57434;42.794;23.302;2023-05-20T00:55:01;16.40;;;6.47;;
70071;SDS011;57434;42.794;23.302;2023-05-20T00:56:04;12.20;;;6.30;;
70071;SDS011;57434;42.794;23.302;2023-05-20T00:57:06;13.73;;;5.93;;
70071;SDS011;57434;42.794;23.302;2023-05-20T00:58:10;12.90;;;6.07;;
70071;SDS011;57434;42.794;23.302;2023-05-20T00:59:12;11.77;;;5.80;;
70071;SDS011;57434;42.794;23.302;2023-05-20T01:00:14;12.43;;;5.68;;
70071;SDS011;57434;42.794;23.302;2023-05-20T01:01:16;13.68;;;6.45;;
70071;SDS011;57434;42.794;23.302;2023-05-20T01:02:18;13.30;;;6.10;;
70071;SDS011;57434;42.794;23.302;2023-05-20T01:03:20;14.75;;;7.00;;
70071;SDS011;57434;42.794;23.302;2023-05-20T01:04:22;10.55;;;5.57;;
70071;SDS011;57434;42.794;23.302;2023-05-20T01:05:24;13.27;;;6.40;;
70071;SDS011;57434;42.794;23.302;2023-05-20T01:06:26;12.30;;;6.00;;
70071;SDS011;57434;42.794;23.302;2023-05-20T01:07:34;14.88;;;6.03;;
70071;SDS011;57434;42.794;23.302;2023-05-20T01:08:36;14.73;;;6.10;;
70071;SDS011;57434;42.794;23.302;2023-05-20T01:09:38;11.63;;;5.45;;
70071;SDS011;57434;42.794;23.302;2023-05-20T01:10:41;14.75;;;6.32;;
70071;SDS011;57434;42.794;23.302;2023-05-20T01:11:47;10.85;;;5.50;;
70071;SDS011;57434;42.794;23.302;2023-05-20T01:12:56;9.50;;;5.10;;
70071;SDS011;57434;42.794;23.302;2023-05-20T01:14:02;9.75;;;5.30;;
70071;SDS011;57434;42.794;23.302;2023-05-20T01:15:09;12.25;;;4.80;;
70071;SDS011;57434;42.794;23.302;2023-05-20T01:16:17;11.80;;;5.13;;
70071;SDS011;57434;42.794;23.302;2023-05-20T01:17:20;15.23;;;5.00;;
70071;SDS011;57434;42.794;23.302;2023-05-20T01:18:26;10.13;;;4.70;;
70071;SDS011;57434;42.794;23.302;2023-05-20T01:19:34;13.73;;;5.68;;
70071;SDS011;57434;42.794;23.302;2023-05-20T01:20:41;9.32;;;4.78;;
70071;SDS011;57434;42.794;23.302;2023-05-20T01:21:43;10.63;;;5.07;;
70071;SDS011;57434;42.794;23.302;2023-05-20T01:22:55;10.15;;;5.18;;
70071;SDS011;57434;42.794;23.302;2023-05-20T01:23:57;10.07;;;4.90;;
70071;SDS011;57434;42.794;23.302;2023-05-20T01:24:59;9.93;;;4.35;;
70071;SDS011;57434;42.794;23.302;2023-05-20T01:26:01;11.50;;;5.43;;
70071;SDS011;57434;42.794;23.302;2023-05-20T01:27:03;10.93;;;5.15;;
70071;SDS011;57434;42.794;23.302;2023-05-20T01:28:05;12.73;;;5.73;;
70071;SDS011;57434;42.794;23.302;2023-05-20T01:29:07;12.15;;;4.78;;
70071;SDS011;57434;42.794;23.302;2023-05-20T01:30:09;11.40;;;5.30;;
70071;SDS011;57434;42.794;23.302;2023-05-20T01:31:22;10.88;;;4.97;;
70071;SDS011;57434;42.794;23.302;2023-05-20T01:32:27;11.63;;;4.72;;
70071;SDS011;57434;42.794;23.302;2023-05-20T01:33:33;13.00;;;5.53;;
70071;SDS011;57434;42.794;23.302;2023-05-20T01:34:37;12.95;;;5.05;;
70071;SDS011;57434;42.794;23.302;2023-05-20T01:35:42;11.68;;;5.45;;
70071;SDS011;57434;42.794;23.302;2023-05-20T01:36:44;13.57;;;6.05;;
70071;SDS011;57434;42.794;23.302;2023-05-20T01:37:47;11.60;;;5.18;;
70071;SDS011;57434;42.794;23.302;2023-05-20T01:38:50;13.83;;;5.23;;
70071;SDS011;57434;42.794;23.302;2023-05-20T01:39:54;13.10;;;5.82;;
70071;SDS011;57434;42.794;23.302;2023-05-20T01:40:57;11.93;;;5.68;;
70071;SDS011;57434;42.794;23.302;2023-05-20T01:42:00;13.93;;;6.05;;
70071;SDS011;57434;42.794;23.302;2023-05-20T01:43:02;9.85;;;5.00;;
70071;SDS011;57434;42.794;23.302;2023-05-20T01:44:05;11.02;;;4.68;;
70071;SDS011;57434;42.794;23.302;2023-05-20T01:45:07;15.50;;;5.65;;
70071;SDS011;57434;42.794;23.302;2023-05-20T01:46:10;8.77;;;4.40;;
70071;SDS011;57434;42.794;23.302;2023-05-20T01:47:12;9.85;;;4.90;;
70071;SDS011;57434;42.794;23.302;2023-05-20T01:48:14;9.75;;;4.80;;
70071;SDS011;57434;42.794;23.302;2023-05-20T01:49:16;11.20;;;5.33;;
70071;SDS011;57434;42.794;23.302;2023-05-20T01:50:18;11.50;;;4.70;;
70071;SDS011;57434;42.794;23.302;2023-05-20T01:51:20;10.10;;;5.07;;
70071;SDS011;57434;42.794;23.302;2023-05-20T01:52:22;11.73;;;5.40;;
70071;SDS011;57434;42.794;23.302;2023-05-20T01:53:24;11.05;;;4.85;;
70071;SDS011;57434;42.794;23.302;2023-05-20T01:54:26;12.38;;;4.47;;
70071;SDS011;57434;42.794;23.302;2023-05-20T01:55:28;9.85;;;4.43;;
70071;SDS011;57434;42.794;23.302;2023-05-20T01:56:30;11.93;;;4.75;;
70071;SDS011;57434;42.794;23.302;2023-05-20T01:57:32;10.00;;;4.72;;
70071;SDS011;57434;42.794;23.302;2023-05-20T01:58:34;9.68;;;4.50;;
70071;SDS011;57434;42.794;23.302;2023-05-20T01:59:36;8.80;;;4.17;;
70071;SDS011;57434;42.794;23.302;2023-05-20T02:00:37;10.38;;;4.40;;
70071;SDS011;57434;42.794;23.302;2023-05-20T02:01:40;10.27;;;4.45;;
70071;SDS011;57434;42.794;23.302;2023-05-20T02:02:41;10.13;;;4.85;;
70071;SDS011;57434;42.794;23.302;2023-05-20T02:03:43;10.65;;;4.78;;
70071;SDS011;57434;42.794;23.302;2023-05-20T02:04:46;10.35;;;4.00;;
70071;SDS011;57434;42.794;23.302;2023-05-20T02:05:49;10.05;;;4.45;;
70071;SDS011;57434;42.794;23.302;2023-05-20T02:06:51;9.65;;;3.92;;
70071;SDS011;57434;42.794;23.302;2023-05-20T02:07:53;8.73;;;4.22;;
70071;SDS011;57434;42.794;23.302;2023-05-20T02:08:55;12.77;;;3.75;;
70071;SDS011;57434;42.794;23.302;2023-05-20T02:09:57;11.27;;;4.10;;
70071;SDS011;57434;42.794;23.302;2023-05-20T02:10:59;9.18;;;4.57;;
70071;SDS011;57434;42.794;23.302;2023-05-20T02:12:00;9.45;;;4.65;;
70071;SDS011;57434;42.794;23.302;2023-05-20T02:13:02;8.98;;;4.47;;
70071;SDS011;57434;42.794;23.302;2023-05-20T02:14:04;7.53;;;3.90;;
70071;SDS011;57434;42.794;23.302;2023-05-20T02:15:06;8.15;;;3.88;;
70071;SDS011;57434;42.794;23.302;2023-05-20T02:16:09;12.30;;;4.40;;
70071;SDS011;57434;42.794;23.302;2023-05-20T02:17:11;9.88;;;4.15;;
70071;SDS011;57434;42.794;23.302;2023-05-20T02:18:13;8.90;;;4.47;;
70071;SDS011;57434;42.794;23.302;2023-05-20T02:19:15;8.63;;;3.92;;
70071;SDS011;57434;42.794;23.302;2023-05-20T02:20:17;9.40;;;4.10;;
70071;SDS011;57434;42.794;23.302;2023-05-20T02:21:19;8.73;;;4.57;;
70071;SDS011;57434;42.794;23.302;2023-05-20T02:22:21;8.75;;;3.80;;
70071;SDS011;57434;42.794;23.302;2023-05-20T02:23:23;8.77;;;4.40;;
70071;SDS011;57434;42.794;23.302;2023-05-20T02:24:25;8.77;;;4.07;;
70071;SDS011;57434;42.794;23.302;2023-05-20T02:25:27;10.10;;;4.38;;
70071;SDS011;57434;42.794;23.302;2023-05-20T02:26:29;9.45;;;4.05;;
70071;SDS011;57434;42.794;23.302;2023-05-20T02:27:30;8.45;;;4.35;;
70071;SDS011;57434;42.794;23.302;2023-05-20T02:28:32;9.95;;;3.83;;
70071;SDS011;57434;42.794;23.302;2023-05-20T02:29:34;8.38;;;3.88;;
70071;SDS011;57434;42.794;23.302;2023-05-20T02:30:37;9.07;;;4.07;;
70071;SDS011;57434;42.794;23.302;2023-05-20T02:31:39;8.43;;;3.53;;
70071;SDS011;57434;42.794;23.302;2023-05-20T02:32:41;8.90;;;4.10;;
70071;SDS011;57434;42.794;23.302;2023-05-20T02:33:43;9.23;;;4.30;;
70071;SDS011;57434;42.794;23.302;2023-05-20T02:34:45;7.25;;;3.95;;
70071;SDS011;57434;42.794;23.302;2023-05-20T02:35:47;13.20;;;4.03;;
70071;SDS011;57434;42.794;23.302;2023-05-20T02:36:49;10.52;;;4.10;;
70071;SDS011;57434;42.794;23.302;2023-05-20T02:37:51;8.07;;;3.30;;
70071;SDS011;57434;42.794;23.302;2023-05-20T02:38:53;9.48;;;3.97;;
70071;SDS011;57434;42.794;23.302;2023-05-20T02:39:55;8.98;;;3.85;;
70071;SDS011;57434;42.794;23.302;2023-05-20T02:40:57;9.73;;;3.97;;
70071;SDS011;57434;42.794;23.302;2023-05-20T02:41:59;10.63;;;4.70;;
70071;SDS011;57434;42.794;23.302;2023-05-20T02:43:01;9.70;;;4.45;;
70071;SDS011;57434;42.794;23.302;2023-05-20T02:44:03;11.38;;;4.80;;
70071;SDS011;57434;42.794;23.302;2023-05-20T02:45:06;8.73;;;4.45;;
70071;SDS011;57434;42.794;23.302;2023-05-20T02:46:08;10.60;;;4.30;;
70071;SDS011;57434;42.794;23.302;2023-05-20T02:47:10;13.13;;;5.10;;
70071;SDS011;57434;42.794;23.302;2023-05-20T02:48:12;10.05;;;4.93;;
70071;SDS011;57434;42.794;23.302;2023-05-20T02:49:14;8.85;;;4.80;;
70071;SDS011;57434;42.794;23.302;2023-05-20T02:50:16;12.70;;;5.22;;
70071;SDS011;57434;42.794;23.302;2023-05-20T02:51:18;9.77;;;5.23;;
70071;SDS011;57434;42.794;23.302;2023-05-20T02:52:20;12.20;;;5.18;;
70071;SDS011;57434;42.794;23.302;2023-05-20T02:53:22;10.85;;;5.90;;
70071;SDS011;57434;42.794;23.302;2023-05-20T02:54:24;14.07;;;6.95;;
70071;SDS011;57434;42.794;23.302;2023-05-20T02:55:26;9.98;;;5.82;;
70071;SDS011;57434;42.794;23.302;2023-05-20T02:56:27;11.05;;;6.25;;
70071;SDS011;57434;42.794;23.302;2023-05-20T02:57:29;14.68;;;6.57;;
70071;SDS011;57434;42.794;23.302;2023-05-20T02:58:31;12.63;;;5.82;;
70071;SDS011;57434;42.794;23.302;2023-05-20T02:59:33;11.60;;;5.50;;
70071;SDS011;57434;42.794;23.302;2023-05-20T03:00:35;13.45;;;5.60;;
70071;SDS011;57434;42.794;23.302;2023-05-20T03:01:37;11.40;;;5.53;;
70071;SDS011;57434;42.794;23.302;2023-05-20T03:02:39;10.75;;;5.13;;
70071;SDS011;57434;42.794;23.302;2023-05-20T03:03:41;9.93;;;5.43;;
70071;SDS011;57434;42.794;23.302;2023-05-20T03:04:43;10.68;;;5.70;;
70071;SDS011;57434;42.794;23.302;2023-05-20T03:05:45;11.07;;;4.90;;
70071;SDS011;57434;42.794;23.302;2023-05-20T03:06:47;11.35;;;5.30;;
70071;SDS011;57434;42.794;23.302;2023-05-20T03:07:49;13.35;;;5.28;;
70071;SDS011;57434;42.794;23.302;2023-05-20T03:08:51;17.70;;;5.28;;
70071;SDS011;57434;42.794;23.302;2023-05-20T03:09:53;11.23;;;5.40;;
70071;SDS011;57434;42.794;23.302;2023-05-20T03:10:54;12.52;;;5.50;;
70071;SDS011;57434;42.794;23.302;2023-05-20T03:11:56;10.73;;;5.77;;
70071;SDS011;57434;42.794;23.302;2023-05-20T03:12:59;12.85;;;6.10;;
70071;SDS011;57434;42.794;23.302;2023-05-20T03:14:00;17.25;;;5.63;;
70071;SDS011;57434;42.794;23.302;2023-05-20T03:15:02;13.27;;;6.00;;
70071;SDS011;57434;42.794;23.302;2023-05-20T03:16:04;10.50;;;5.40;;
70071;SDS011;57434;42.794;23.302;2023-05-20T03:17:07;9.40;;;4.45;;
70071;SDS011;57434;42.794;23.302;2023-05-20T03:18:09;8.55;;;4.20;;
70071;SDS011;57434;42.794;23.302;2023-05-20T03:19:11;15.15;;;4.38;;
70071;SDS011;57434;42.794;23.302;2023-05-20T03:20:13;9.18;;;4.22;;
70071;SDS011;57434;42.794;23.302;2023-05-20T03:21:15;7.88;;;3.65;;
70071;SDS011;57434;42.794;23.302;2023-05-20T03:22:17;10.70;;;4.10;;
70071;SDS011;57434;42.794;23.302;2023-05-20T03:23:19;9.05;;;4.30;;
70071;SDS011;57434;42.794;23.302;2023-05-20T03:24:21;10.30;;;4.18;;
70071;SDS011;57434;42.794;23.302;2023-05-20T03:25:23;8.68;;;3.70;;
70071;SDS011;57434;42.794;23.302;2023-05-20T03:26:25;9.02;;;4.60;;
70071;SDS011;57434;42.794;23.302;2023-05-20T03:27:27;9.07;;;4.00;;
70071;SDS011;57434;42.794;23.302;2023-05-20T03:28:29;9.52;;;4.18;;
70071;SDS011;57434;42.794;23.302;2023-05-20T03:29:31;8.65;;;4.07;;
70071;SDS011;57434;42.794;23.302;2023-05-20T03:30:33;10.10;;;4.22;;
70071;SDS011;57434;42.794;23.302;2023-05-20T03:31:35;12.63;;;4.70;;
70071;SDS011;57434;42.794;23.302;2023-05-20T03:32:37;12.57;;;4.80;;
70071;SDS011;57434;42.794;23.302;2023-05-20T03:33:39;9.60;;;4.68;;
70071;SDS011;57434;42.794;23.302;2023-05-20T03:34:41;9.60;;;4.53;;
70071;SDS011;57434;42.794;23.302;2023-05-20T03:35:42;9.68;;;4.28;;
70071;SDS011;57434;42.794;23.302;2023-05-20T03:36:44;12.73;;;4.80;;
70071;SDS011;57434;42.794;23.302;2023-05-20T03:37:46;11.15;;;3.65;;
70071;SDS011;57434;42.794;23.302;2023-05-20T03:38:48;8.90;;;3.85;;
70071;SDS011;57434;42.794;23.302;2023-05-20T03:39:50;10.40;;;3.97;;
70071;SDS011;57434;42.794;23.302;2023-05-20T03:40:52;9.68;;;3.97;;
70071;SDS011;57434;42.794;23.302;2023-05-20T03:41:54;9.43;;;3.70;;
70071;SDS011;57434;42.794;23.302;2023-05-20T03:42:56;8.63;;;4.40;;
70071;SDS011;57434;42.794;23.302;2023-05-20T03:43:58;10.18;;;4.22;;
70071;SDS011;57434;42.794;23.302;2023-05-20T03:45:00;8.90;;;3.95;;
70071;SDS011;57434;42.794;23.302;2023-05-20T03:46:02;10.70;;;3.60;;
70071;SDS011;57434;42.794;23.302;2023-05-20T03:47:04;8.02;;;3.15;;
70071;SDS011;57434;42.794;23.302;2023-05-20T03:48:06;9.57;;;4.40;;
70071;SDS011;57434;42.794;23.302;2023-05-20T03:49:08;9.40;;;4.82;;
70071;SDS011;57434;42.794;23.302;2023-05-20T03:50:10;10.38;;;4.47;;
70071;SDS011;57434;42.794;23.302;2023-05-20T03:51:12;9.20;;;4.45;;
70071;SDS011;57434;42.794;23.302;2023-05-20T03:52:14;9.25;;;4.88;;
70071;SDS011;57434;42.794;23.302;2023-05-20T03:53:16;9.60;;;4.60;;
70071;SDS011;57434;42.794;23.302;2023-05-20T03:54:18;11.30;;;5.10;;
70071;SDS011;57434;42.794;23.302;2023-05-20T03:55:20;11.40;;;5.68;;
70071;SDS011;57434;42.794;23.302;2023-05-20T03:56:22;14.40;;;5.50;;
70071;SDS011;57434;42.794;23.302;2023-05-20T03:57:24;10.70;;;5.32;;
70071;SDS011;57434;42.794;23.302;2023-05-20T03:58:26;10.73;;;5.50;;
70071;SDS011;57434;42.794;23.302;2023-05-20T03:59:28;12.93;;;5.85;;
70071;SDS011;57434;42.794;23.302;2023-05-20T04:00:30;12.02;;;6.32;;
70071;SDS011;57434;42.794;23.302;2023-05-20T04:01:32;16.55;;;6.65;;
70071;SDS011;57434;42.794;23.302;2023-05-20T04:02:34;13.32;;;5.70;;
70071;SDS011;57434;42.794;23.302;2023-05-20T04:03:36;16.63;;;6.20;;
70071;SDS011;57434;42.794;23.302;2023-05-20T04:04:38;13.10;;;6.30;;
70071;SDS011;57434;42.794;23.302;2023-05-20T04:05:40;13.45;;;6.75;;
70071;SDS011;57434;42.794;23.302;2023-05-20T04:06:42;13.38;;;6.35;;
70071;SDS011;57434;42.794;23.302;2023-05-20T04:07:44;16.17;;;6.78;;
70071;SDS011;57434;42.794;23.302;2023-05-20T04:08:45;12.50;;;6.65;;
70071;SDS011;57434;42.794;23.302;2023-05-20T04:09:47;12.73;;;6.72;;
70071;SDS011;57434;42.794;23.302;2023-05-20T04:10:49;12.77;;;6.25;;
70071;SDS011;57434;42.794;23.302;2023-05-20T04:11:52;13.00;;;6.80;;
70071;SDS011;57434;42.794;23.302;2023-05-20T04:12:54;17.88;;;7.32;;
70071;SDS011;57434;42.794;23.302;2023-05-20T04:13:56;13.93;;;7.23;;
70071;SDS011;57434;42.794;23.302;2023-05-20T04:14:58;20.65;;;7.03;;
70071;SDS011;57434;42.794;23.302;2023-05-20T04:16:00;13.02;;;6.80;;
70071;SDS011;57434;42.794;23.302;2023-05-20T04:17:02;12.55;;;6.53;;
70071;SDS011;57434;42.794;23.302;2023-05-20T04:18:04;13.35;;;7.00;;
70071;SDS011;57434;42.794;23.302;2023-05-20T04:19:06;12.02;;;6.53;;
70071;SDS011;57434;42.794;23.302;2023-05-20T04:20:09;17.17;;;6.93;;
70071;SDS011;57434;42.794;23.302;2023-05-20T04:21:11;13.50;;;6.93;;
70071;SDS011;57434;42.794;23.302;2023-05-20T04:22:13;13.02;;;7.30;;
70071;SDS011;57434;42.794;23.302;2023-05-20T04:23:15;14.30;;;7.00;;
70071;SDS011;57434;42.794;23.302;2023-05-20T04:24:17;13.57;;;7.13;;
70071;SDS011;57434;42.794;23.302;2023-05-20T04:25:19;11.30;;;6.20;;
70071;SDS011;57434;42.794;23.302;2023-05-20T04:26:21;14.80;;;7.30;;
70071;SDS011;57434;42.794;23.302;2023-05-20T04:27:22;15.40;;;7.72;;
70071;SDS011;57434;42.794;23.302;2023-05-20T04:28:24;15.38;;;7.28;;
70071;SDS011;57434;42.794;23.302;2023-05-20T04:29:27;14.05;;;6.25;;
70071;SDS011;57434;42.794;23.302;2023-05-20T04:30:29;15.65;;;7.32;;
70071;SDS011;57434;42.794;23.302;2023-05-20T04:31:31;13.35;;;7.18;;
70071;SDS011;57434;42.794;23.302;2023-05-20T04:32:33;14.57;;;7.57;;
70071;SDS011;57434;42.794;23.302;2023-05-20T04:33:35;16.05;;;8.35;;
70071;SDS011;57434;42.794;23.302;2023-05-20T04:34:37;16.23;;;7.67;;
70071;SDS011;57434;42.794;23.302;2023-05-20T04:35:39;13.60;;;7.63;;
70071;SDS011;57434;42.794;23.302;2023-05-20T04:36:41;18.27;;;8.50;;
70071;SDS011;57434;42.794;23.302;2023-05-20T04:37:42;15.30;;;8.43;;
70071;SDS011;57434;42.794;23.302;2023-05-20T04:38:44;14.20;;;7.85;;
70071;SDS011;57434;42.794;23.302;2023-05-20T04:39:46;15.98;;;7.97;;
70071;SDS011;57434;42.794;23.302;2023-05-20T04:40:48;16.23;;;8.45;;
70071;SDS011;57434;42.794;23.302;2023-05-20T04:41:50;14.80;;;8.13;;
70071;SDS011;57434;42.794;23.302;2023-05-20T04:42:53;14.80;;;7.35;;
70071;SDS011;57434;42.794;23.302;2023-05-20T04:43:54;13.43;;;7.28;;
70071;SDS011;57434;42.794;23.302;2023-05-20T04:44:56;14.47;;;7.40;;
70071;SDS011;57434;42.794;23.302;2023-05-20T04:45:58;16.23;;;8.07;;
70071;SDS011;57434;42.794;23.302;2023-05-20T04:47:00;17.08;;;8.35;;
70071;SDS011;57434;42.794;23.302;2023-05-20T04:48:02;15.75;;;7.72;;
70071;SDS011;57434;42.794;23.302;2023-05-20T04:49:04;19.50;;;9.20;;
70071;SDS011;57434;42.794;23.302;2023-05-20T04:50:09;17.05;;;8.68;;
70071;SDS011;57434;42.794;23.302;2023-05-20T04:51:12;15.20;;;8.55;;
70071;SDS011;57434;42.794;23.302;2023-05-20T04:52:14;19.02;;;8.55;;
70071;SDS011;57434;42.794;23.302;2023-05-20T04:53:16;15.85;;;8.98;;
70071;SDS011;57434;42.794;23.302;2023-05-20T04:54:19;16.15;;;7.57;;
70071;SDS011;57434;42.794;23.302;2023-05-20T04:55:20;15.50;;;8.20;;
70071;SDS011;57434;42.794;23.302;2023-05-20T04:56:22;13.93;;;7.85;;
70071;SDS011;57434;42.794;23.302;2023-05-20T04:57:24;20.48;;;7.78;;
70071;SDS011;57434;42.794;23.302;2023-05-20T04:58:26;14.75;;;7.97;;
70071;SDS011;57434;42.794;23.302;2023-05-20T04:59:28;16.60;;;8.18;;
70071;SDS011;57434;42.794;23.302;2023-05-20T05:00:30;14.43;;;7.95;;
70071;SDS011;57434;42.794;23.302;2023-05-20T05:01:32;21.27;;;8.32;;
70071;SDS011;57434;42.794;23.302;2023-05-20T05:02:34;14.07;;;7.53;;
70071;SDS011;57434;42.794;23.302;2023-05-20T05:03:36;16.02;;;7.82;;
70071;SDS011;57434;42.794;23.302;2023-05-20T05:04:38;17.45;;;7.78;;
70071;SDS011;57434;42.794;23.302;2023-05-20T05:05:40;16.77;;;8.33;;
70071;SDS011;57434;42.794;23.302;2023-05-20T05:06:43;14.38;;;7.53;;
70071;SDS011;57434;42.794;23.302;2023-05-20T05:07:44;12.98;;;7.75;;
70071;SDS011;57434;42.794;23.302;2023-05-20T05:08:46;12.98;;;7.47;;
70071;SDS011;57434;42.794;23.302;2023-05-20T05:09:48;16.20;;;8.07;;
70071;SDS011;57434;42.794;23.302;2023-05-20T05:10:50;17.05;;;8.57;;
70071;SDS011;57434;42.794;23.302;2023-05-20T05:11:53;15.20;;;8.70;;
70071;SDS011;57434;42.794;23.302;2023-05-20T05:12:54;17.88;;;8.90;;
70071;SDS011;57434;42.794;23.302;2023-05-20T05:13:56;14.73;;;8.23;;
70071;SDS011;57434;42.794;23.302;2023-05-20T05:14:58;15.38;;;8.20;;
70071;SDS011;57434;42.794;23.302;2023-05-20T05:16:00;14.40;;;7.20;;
70071;SDS011;57434;42.794;23.302;2023-05-20T05:17:03;16.08;;;8.35;;
70071;SDS011;57434;42.794;23.302;2023-05-20T05:18:05;14.70;;;7.85;;
70071;SDS011;57434;42.794;23.302;2023-05-20T05:19:07;13.10;;;7.72;;
70071;SDS011;57434;42.794;23.302;2023-05-20T05:20:09;14.25;;;7.22;;
70071;SDS011;57434;42.794;23.302;2023-05-20T05:21:11;15.35;;;7.78;;
70071;SDS011;57434;42.794;23.302;2023-05-20T05:22:13;13.02;;;7.15;;
70071;SDS011;57434;42.794;23.302;2023-05-20T05:23:15;15.15;;;7.75;;
70071;SDS011;57434;42.794;23.302;2023-05-20T05:24:17;21.92;;;8.18;;
70071;SDS011;57434;42.794;23.302;2023-05-20T05:25:19;15.55;;;7.38;;
70071;SDS011;57434;42.794;23.302;2023-05-20T05:26:21;14.03;;;7.80;;
70071;SDS011;57434;42.794;23.302;2023-05-20T05:27:23;17.60;;;8.07;;
70071;SDS011;57434;42.794;23.302;2023-05-20T05:28:24;15.10;;;8.80;;
70071;SDS011;57434;42.794;23.302;2023-05-20T05:29:27;17.50;;;8.65;;
70071;SDS011;57434;42.794;23.302;2023-05-20T05:30:29;15.85;;;9.18;;
70071;SDS011;57434;42.794;23.302;2023-05-20T05:31:31;18.92;;;8.02;;
70071;SDS011;57434;42.794;23.302;2023-05-20T05:32:33;16.17;;;8.10;;
70071;SDS011;57434;42.794;23.302;2023-05-20T05:33:35;14.82;;;7.63;;
70071;SDS011;57434;42.794;23.302;2023-05-20T05:34:37;16.67;;;8.02;;
70071;SDS011;57434;42.794;23.302;2023-05-20T05:35:40;14.85;;;7.63;;
70071;SDS011;57434;42.794;23.302;2023-05-20T05:36:42;15.20;;;7.20;;
70071;SDS011;57434;42.794;23.302;2023-05-20T05:37:44;13.13;;;7.82;;
70071;SDS011;57434;42.794;23.302;2023-05-20T05:38:46;15.40;;;8.02;;
70071;SDS011;57434;42.794;23.302;2023-05-20T05:39:48;13.48;;;7.20;;
70071;SDS011;57434;42.794;23.302;2023-05-20T05:40:50;13.82;;;7.45;;
70071;SDS011;57434;42.794;23.302;2023-05-20T05:41:52;15.05;;;7.57;;
70071;SDS011;57434;42.794;23.302;2023-05-20T05:42:54;17.08;;;8.77;;
70071;SDS011;57434;42.794;23.302;2023-05-20T05:43:57;12.77;;;7.95;;
70071;SDS011;57434;42.794;23.302;2023-05-20T05:44:59;15.30;;;8.40;;
70071;SDS011;57434;42.794;23.302;2023-05-20T05:46:01;14.32;;;7.38;;
70071;SDS011;57434;42.794;23.302;2023-05-20T05:47:03;16.07;;;8.43;;
70071;SDS011;57434;42.794;23.302;2023-05-20T05:48:05;14.23;;;8.07;;
70071;SDS011;57434;42.794;23.302;2023-05-20T05:49:07;13.10;;;8.00;;
70071;SDS011;57434;42.794;23.302;2023-05-20T05:50:09;14.27;;;7.93;;
70071;SDS011;57434;42.794;23.302;2023-05-20T05:51:11;15.45;;;7.43;;
70071;SDS011;57434;42.794;23.302;2023-05-20T05:52:13;14.68;;;8.00;;
70071;SDS011;57434;42.794;23.302;2023-05-20T05:53:15;14.57;;;7.65;;
70071;SDS011;57434;42.794;23.302;2023-05-20T05:54:17;13.38;;;7.20;;
70071;SDS011;57434;42.794;23.302;2023-05-20T05:55:18;17.38;;;8.07;;
70071;SDS011;57434;42.794;23.302;2023-05-20T05:56:20;14.77;;;8.10;;
70071;SDS011;57434;42.794;23.302;2023-05-20T05:57:22;15.20;;;8.10;;
70071;SDS011;57434;42.794;23.302;2023-05-20T05:58:24;14.93;;;7.90;;
70071;SDS011;57434;42.794;23.302;2023-05-20T05:59:26;14.77;;;8.20;;
70071;SDS011;57434;42.794;23.302;2023-05-20T06:00:28;22.88;;;11.07;;
70071;SDS011;57434;42.794;23.302;2023-05-20T06:01:30;17.63;;;8.45;;
70071;SDS011;57434;42.794;23.302;2023-05-20T06:02:32;16.10;;;7.68;;
70071;SDS011;57434;42.794;23.302;2023-05-20T06:03:34;15.82;;;8.07;;
70071;SDS011;57434;42.794;23.302;2023-05-20T06:04:37;15.32;;;8.95;;